sensor_id;sensor_type;location;lat;lon;timestamp;P1;durP1;ratioP1;P2;durP2;ratioP2
31978;SDS011;18502;43.574;1.276;2023-03-31T00:00:35;10.63;;;4.03;;
31978;SDS011;18502;43.574;1.276;2023-03-31T00:03:00;8.40;;;3.63;;
31978;SDS011;18502;43.574;1.276;2023-03-31T00:05:26;16.60;;;4.47;;
31978;SDS011;18502;43.574;1.276;2023-03-31T00:07:56;11.38;;;3.65;;
31978;SDS011;18502;43.574;1.276;2023-03-31T00:10:25;11.75;;;4.00;;
31978;SDS011;18502;43.574;1.276;2023-03-31T00:12:52;10.55;;;3.78;;
31978;SDS011;18502;43.574;1.276;2023-03-31T00:15:18;13.30;;;3.35;;
31978;SDS011;18502;43.574;1.276;2023-03-31T00:17:44;8.73;;;3.50;;
31978;SDS011;18502;43.574;1.276;2023-03-31T00:20:11;9.73;;;3.88;;
31978;SDS011;18502;43.574;1.276;2023-03-31T00:22:37;10.75;;;4.05;;
31978;SDS011;18502;43.574;1.276;2023-03-31T00:25:10;13.50;;;3.65;;
31978;SDS011;18502;43.574;1.276;2023-03-31T00:27:36;13.50;;;3.65;;
31978;SDS011;18502;43.574;1.276;2023-03-31T00:30:04;9.02;;;3.22;;
31978;SDS011;18502;43.574;1.276;2023-03-31T00:32:30;11.60;;;4.20;;
31978;SDS011;18502;43.574;1.276;2023-03-31T00:34:57;14.20;;;4.07;;
31978;SDS011;18502;43.574;1.276;2023-03-31T00:37:22;13.23;;;3.30;;
31978;SDS011;18502;43.574;1.276;2023-03-31T00:39:48;11.38;;;3.83;;
31978;SDS011;18502;43.574;1.276;2023-03-31T00:42:14;9.23;;;3.35;;
31978;SDS011;18502;43.574;1.276;2023-03-31T00:50:15;11.45;;;3.88;;
31978;SDS011;18502;43.574;1.276;2023-03-31T00:52:44;10.80;;;4.00;;
31978;SDS011;18502;43.574;1.276;2023-03-31T00:55:16;11.18;;;4.05;;
31978;SDS011;18502;43.574;1.276;2023-03-31T00:57:48;10.02;;;3.35;;
31978;SDS011;18502;43.574;1.276;2023-03-31T01:00:17;10.82;;;3.90;;
31978;SDS011;18502;43.574;1.276;2023-03-31T01:02:47;16.17;;;4.40;;
31978;SDS011;18502;43.574;1.276;2023-03-31T01:05:20;11.55;;;3.88;;
31978;SDS011;18502;43.574;1.276;2023-03-31T01:07:48;10.10;;;3.30;;
31978;SDS011;18502;43.574;1.276;2023-03-31T01:10:15;14.32;;;3.95;;
31978;SDS011;18502;43.574;1.276;2023-03-31T01:12:46;7.60;;;2.78;;
31978;SDS011;18502;43.574;1.276;2023-03-31T01:15:15;10.13;;;4.10;;
31978;SDS011;18502;43.574;1.276;2023-03-31T01:17:41;8.73;;;3.15;;
31978;SDS011;18502;43.574;1.276;2023-03-31T01:46:52;14.38;;;3.70;;
31978;SDS011;18502;43.574;1.276;2023-03-31T01:49:38;10.05;;;3.53;;
31978;SDS011;18502;43.574;1.276;2023-03-31T01:53:00;12.73;;;3.95;;
31978;SDS011;18502;43.574;1.276;2023-03-31T01:55:23;15.65;;;4.10;;
31978;SDS011;18502;43.574;1.276;2023-03-31T01:58:14;10.43;;;3.33;;
31978;SDS011;18502;43.574;1.276;2023-03-31T02:01:28;8.88;;;3.30;;
31978;SDS011;18502;43.574;1.276;2023-03-31T02:03:39;15.27;;;4.78;;
31978;SDS011;18502;43.574;1.276;2023-03-31T02:06:14;11.65;;;3.50;;
31978;SDS011;18502;43.574;1.276;2023-03-31T02:08:45;9.40;;;3.88;;
31978;SDS011;18502;43.574;1.276;2023-03-31T02:11:16;22.52;;;4.55;;
31978;SDS011;18502;43.574;1.276;2023-03-31T02:13:43;16.52;;;4.32;;
31978;SDS011;18502;43.574;1.276;2023-03-31T02:16:15;15.25;;;4.63;;
31978;SDS011;18502;43.574;1.276;2023-03-31T02:18:48;13.55;;;4.40;;
31978;SDS011;18502;43.574;1.276;2023-03-31T02:21:18;19.20;;;5.97;;
31978;SDS011;18502;43.574;1.276;2023-03-31T02:23:46;10.27;;;3.70;;
31978;SDS011;18502;43.574;1.276;2023-03-31T02:26:17;8.60;;;3.75;;
31978;SDS011;18502;43.574;1.276;2023-03-31T02:28:47;10.35;;;3.80;;
31978;SDS011;18502;43.574;1.276;2023-03-31T02:31:20;13.63;;;4.43;;
31978;SDS011;18502;43.574;1.276;2023-03-31T02:34:06;15.93;;;4.28;;
31978;SDS011;18502;43.574;1.276;2023-03-31T02:36:32;11.48;;;4.25;;
31978;SDS011;18502;43.574;1.276;2023-03-31T02:39:02;10.35;;;3.80;;
31978;SDS011;18502;43.574;1.276;2023-03-31T02:41:31;10.55;;;4.40;;
31978;SDS011;18502;43.574;1.276;2023-03-31T02:43:56;12.77;;;4.53;;
31978;SDS011;18502;43.574;1.276;2023-03-31T02:46:22;12.07;;;5.38;;
31978;SDS011;18502;43.574;1.276;2023-03-31T02:48:50;13.85;;;4.65;;
31978;SDS011;18502;43.574;1.276;2023-03-31T02:51:26;13.43;;;4.55;;
31978;SDS011;18502;43.574;1.276;2023-03-31T03:10:26;14.30;;;4.10;;
31978;SDS011;18502;43.574;1.276;2023-03-31T03:15:57;13.93;;;3.92;;
31978;SDS011;18502;43.574;1.276;2023-03-31T03:18:27;17.08;;;5.00;;
31978;SDS011;18502;43.574;1.276;2023-03-31T03:20:53;12.70;;;4.93;;
31978;SDS011;18502;43.574;1.276;2023-03-31T03:23:19;11.07;;;4.22;;
31978;SDS011;18502;43.574;1.276;2023-03-31T03:25:44;17.92;;;4.40;;
31978;SDS011;18502;43.574;1.276;2023-03-31T03:28:10;15.55;;;5.47;;
31978;SDS011;18502;43.574;1.276;2023-03-31T03:30:36;11.43;;;4.35;;
31978;SDS011;18502;43.574;1.276;2023-03-31T03:33:02;10.77;;;4.70;;
31978;SDS011;18502;43.574;1.276;2023-03-31T03:35:30;9.32;;;4.03;;
31978;SDS011;18502;43.574;1.276;2023-03-31T03:37:57;11.60;;;4.50;;
31978;SDS011;18502;43.574;1.276;2023-03-31T03:40:22;15.65;;;4.70;;
31978;SDS011;18502;43.574;1.276;2023-03-31T03:42:48;16.73;;;4.93;;
31978;SDS011;18502;43.574;1.276;2023-03-31T03:45:13;16.98;;;5.38;;
31978;SDS011;18502;43.574;1.276;2023-03-31T03:47:39;12.13;;;4.82;;
31978;SDS011;18502;43.574;1.276;2023-03-31T03:50:05;9.82;;;4.68;;
31978;SDS011;18502;43.574;1.276;2023-03-31T03:52:31;14.15;;;4.88;;
31978;SDS011;18502;43.574;1.276;2023-03-31T03:54:57;12.55;;;4.55;;
31978;SDS011;18502;43.574;1.276;2023-03-31T03:57:22;16.00;;;4.47;;
31978;SDS011;18502;43.574;1.276;2023-03-31T03:59:48;12.73;;;4.30;;
31978;SDS011;18502;43.574;1.276;2023-03-31T04:02:14;12.68;;;4.70;;
31978;SDS011;18502;43.574;1.276;2023-03-31T04:04:39;13.35;;;5.25;;
31978;SDS011;18502;43.574;1.276;2023-03-31T04:07:05;10.50;;;4.00;;
31978;SDS011;18502;43.574;1.276;2023-03-31T04:09:31;8.63;;;4.10;;
31978;SDS011;18502;43.574;1.276;2023-03-31T04:11:56;13.13;;;4.88;;
31978;SDS011;18502;43.574;1.276;2023-03-31T04:14:22;11.48;;;4.28;;
31978;SDS011;18502;43.574;1.276;2023-03-31T04:16:49;12.57;;;4.78;;
31978;SDS011;18502;43.574;1.276;2023-03-31T04:19:15;8.18;;;4.82;;
31978;SDS011;18502;43.574;1.276;2023-03-31T04:21:41;15.05;;;4.45;;
31978;SDS011;18502;43.574;1.276;2023-03-31T04:24:09;13.32;;;5.10;;
31978;SDS011;18502;43.574;1.276;2023-03-31T04:26:40;13.80;;;5.47;;
31978;SDS011;18502;43.574;1.276;2023-03-31T04:29:12;16.38;;;5.50;;
31978;SDS011;18502;43.574;1.276;2023-03-31T04:31:40;12.55;;;4.82;;
31978;SDS011;18502;43.574;1.276;2023-03-31T04:34:10;15.80;;;5.30;;
31978;SDS011;18502;43.574;1.276;2023-03-31T04:36:38;15.25;;;5.50;;
31978;SDS011;18502;43.574;1.276;2023-03-31T04:39:11;16.17;;;5.60;;
31978;SDS011;18502;43.574;1.276;2023-03-31T04:41:38;16.80;;;5.70;;
31978;SDS011;18502;43.574;1.276;2023-03-31T04:44:04;15.02;;;4.72;;
31978;SDS011;18502;43.574;1.276;2023-03-31T04:46:31;9.68;;;5.13;;
31978;SDS011;18502;43.574;1.276;2023-03-31T04:48:57;16.73;;;5.30;;
31978;SDS011;18502;43.574;1.276;2023-03-31T04:51:23;15.38;;;4.80;;
31978;SDS011;18502;43.574;1.276;2023-03-31T04:53:49;18.30;;;5.72;;
31978;SDS011;18502;43.574;1.276;2023-03-31T04:56:14;13.77;;;5.63;;
31978;SDS011;18502;43.574;1.276;2023-03-31T04:58:40;12.20;;;5.40;;
31978;SDS011;18502;43.574;1.276;2023-03-31T05:01:06;9.32;;;4.40;;
31978;SDS011;18502;43.574;1.276;2023-03-31T05:03:32;13.00;;;4.78;;
31978;SDS011;18502;43.574;1.276;2023-03-31T05:05:58;16.92;;;5.45;;
31978;SDS011;18502;43.574;1.276;2023-03-31T05:08:24;15.13;;;4.47;;
31978;SDS011;18502;43.574;1.276;2023-03-31T05:10:51;12.52;;;5.10;;
31978;SDS011;18502;43.574;1.276;2023-03-31T05:13:17;15.73;;;5.18;;
31978;SDS011;18502;43.574;1.276;2023-03-31T05:15:42;15.30;;;5.07;;
31978;SDS011;18502;43.574;1.276;2023-03-31T05:18:14;14.90;;;5.22;;
31978;SDS011;18502;43.574;1.276;2023-03-31T05:20:40;14.27;;;5.70;;
31978;SDS011;18502;43.574;1.276;2023-03-31T05:23:06;18.00;;;4.90;;
31978;SDS011;18502;43.574;1.276;2023-03-31T05:25:32;15.68;;;5.13;;
31978;SDS011;18502;43.574;1.276;2023-03-31T05:27:58;14.73;;;4.60;;
31978;SDS011;18502;43.574;1.276;2023-03-31T05:30:24;13.60;;;4.78;;
31978;SDS011;18502;43.574;1.276;2023-03-31T05:32:50;9.90;;;4.22;;
31978;SDS011;18502;43.574;1.276;2023-03-31T05:35:16;14.40;;;4.90;;
31978;SDS011;18502;43.574;1.276;2023-03-31T05:37:42;14.50;;;4.55;;
31978;SDS011;18502;43.574;1.276;2023-03-31T05:40:08;13.93;;;4.25;;
31978;SDS011;18502;43.574;1.276;2023-03-31T05:42:34;13.10;;;4.60;;
31978;SDS011;18502;43.574;1.276;2023-03-31T05:45:01;13.15;;;4.72;;
31978;SDS011;18502;43.574;1.276;2023-03-31T05:47:27;13.32;;;4.13;;
31978;SDS011;18502;43.574;1.276;2023-03-31T05:49:53;9.90;;;4.30;;
31978;SDS011;18502;43.574;1.276;2023-03-31T05:52:18;16.20;;;4.47;;
31978;SDS011;18502;43.574;1.276;2023-03-31T05:54:44;12.82;;;3.95;;
31978;SDS011;18502;43.574;1.276;2023-03-31T05:57:10;12.32;;;4.05;;
31978;SDS011;18502;43.574;1.276;2023-03-31T05:59:36;17.90;;;6.45;;
31978;SDS011;18502;43.574;1.276;2023-03-31T06:02:02;12.55;;;4.45;;
31978;SDS011;18502;43.574;1.276;2023-03-31T06:04:28;17.52;;;4.85;;
31978;SDS011;18502;43.574;1.276;2023-03-31T06:06:56;15.85;;;4.63;;
31978;SDS011;18502;43.574;1.276;2023-03-31T06:09:22;13.23;;;4.25;;
31978;SDS011;18502;43.574;1.276;2023-03-31T06:11:48;11.10;;;3.85;;
31978;SDS011;18502;43.574;1.276;2023-03-31T06:14:14;14.18;;;3.90;;
31978;SDS011;18502;43.574;1.276;2023-03-31T06:16:40;13.10;;;4.45;;
31978;SDS011;18502;43.574;1.276;2023-03-31T06:19:06;19.00;;;4.78;;
31978;SDS011;18502;43.574;1.276;2023-03-31T06:21:32;18.02;;;5.53;;
31978;SDS011;18502;43.574;1.276;2023-03-31T06:23:58;11.82;;;3.83;;
31978;SDS011;18502;43.574;1.276;2023-03-31T06:26:24;16.33;;;4.43;;
31978;SDS011;18502;43.574;1.276;2023-03-31T06:28:51;13.73;;;3.97;;
31978;SDS011;18502;43.574;1.276;2023-03-31T06:31:18;21.38;;;4.63;;
31978;SDS011;18502;43.574;1.276;2023-03-31T06:33:46;21.92;;;4.57;;
31978;SDS011;18502;43.574;1.276;2023-03-31T06:36:13;32.80;;;5.80;;
31978;SDS011;18502;43.574;1.276;2023-03-31T06:38:40;22.30;;;5.60;;
31978;SDS011;18502;43.574;1.276;2023-03-31T06:41:07;30.73;;;5.63;;
31978;SDS011;18502;43.574;1.276;2023-03-31T06:43:35;37.60;;;6.97;;
31978;SDS011;18502;43.574;1.276;2023-03-31T06:46:01;27.98;;;5.53;;
31978;SDS011;18502;43.574;1.276;2023-03-31T06:48:27;30.20;;;5.97;;
31978;SDS011;18502;43.574;1.276;2023-03-31T06:50:53;35.88;;;7.30;;
31978;SDS011;18502;43.574;1.276;2023-03-31T06:53:19;26.65;;;5.68;;
31978;SDS011;18502;43.574;1.276;2023-03-31T06:55:46;36.05;;;7.00;;
31978;SDS011;18502;43.574;1.276;2023-03-31T06:58:12;30.55;;;5.22;;
31978;SDS011;18502;43.574;1.276;2023-03-31T07:00:38;33.92;;;6.32;;
31978;SDS011;18502;43.574;1.276;2023-03-31T07:03:04;31.88;;;6.65;;
31978;SDS011;18502;43.574;1.276;2023-03-31T07:05:30;31.67;;;6.53;;
31978;SDS011;18502;43.574;1.276;2023-03-31T07:07:57;34.83;;;6.85;;
31978;SDS011;18502;43.574;1.276;2023-03-31T07:10:25;29.05;;;6.25;;
31978;SDS011;18502;43.574;1.276;2023-03-31T07:12:52;33.05;;;5.50;;
31978;SDS011;18502;43.574;1.276;2023-03-31T07:15:18;32.35;;;5.25;;
31978;SDS011;18502;43.574;1.276;2023-03-31T07:17:44;22.23;;;5.25;;
31978;SDS011;18502;43.574;1.276;2023-03-31T07:20:13;24.83;;;6.00;;
31978;SDS011;18502;43.574;1.276;2023-03-31T07:22:40;20.48;;;4.57;;
31978;SDS011;18502;43.574;1.276;2023-03-31T07:25:09;28.00;;;4.72;;
31978;SDS011;18502;43.574;1.276;2023-03-31T07:27:36;21.83;;;4.80;;
31978;SDS011;18502;43.574;1.276;2023-03-31T07:30:05;19.83;;;5.50;;
31978;SDS011;18502;43.574;1.276;2023-03-31T07:32:33;25.73;;;5.43;;
31978;SDS011;18502;43.574;1.276;2023-03-31T07:37:33;27.25;;;5.40;;
31978;SDS011;18502;43.574;1.276;2023-03-31T07:39:59;26.45;;;5.50;;
31978;SDS011;18502;43.574;1.276;2023-03-31T07:42:25;34.17;;;5.82;;
31978;SDS011;18502;43.574;1.276;2023-03-31T07:44:51;24.17;;;6.95;;
31978;SDS011;18502;43.574;1.276;2023-03-31T07:47:16;23.00;;;5.63;;
31978;SDS011;18502;43.574;1.276;2023-03-31T07:49:42;30.02;;;7.10;;
31978;SDS011;18502;43.574;1.276;2023-03-31T07:52:07;24.42;;;6.00;;
31978;SDS011;18502;43.574;1.276;2023-03-31T07:54:33;27.88;;;6.75;;
31978;SDS011;18502;43.574;1.276;2023-03-31T07:56:59;31.95;;;6.97;;
31978;SDS011;18502;43.574;1.276;2023-03-31T07:59:28;33.78;;;6.78;;
31978;SDS011;18502;43.574;1.276;2023-03-31T08:01:55;28.00;;;7.13;;
31978;SDS011;18502;43.574;1.276;2023-03-31T08:04:20;31.40;;;6.90;;
31978;SDS011;18502;43.574;1.276;2023-03-31T08:06:46;37.58;;;8.00;;
31978;SDS011;18502;43.574;1.276;2023-03-31T08:09:11;40.88;;;8.25;;
31978;SDS011;18502;43.574;1.276;2023-03-31T08:11:37;30.17;;;5.57;;
31978;SDS011;18502;43.574;1.276;2023-03-31T08:14:03;40.28;;;7.97;;
31978;SDS011;18502;43.574;1.276;2023-03-31T08:16:29;34.85;;;7.63;;
31978;SDS011;18502;43.574;1.276;2023-03-31T08:18:55;40.47;;;7.38;;
31978;SDS011;18502;43.574;1.276;2023-03-31T08:21:21;39.78;;;8.25;;
31978;SDS011;18502;43.574;1.276;2023-03-31T08:23:46;32.60;;;7.30;;
31978;SDS011;18502;43.574;1.276;2023-03-31T08:26:13;40.53;;;8.68;;
31978;SDS011;18502;43.574;1.276;2023-03-31T08:28:44;42.90;;;7.43;;
31978;SDS011;18502;43.574;1.276;2023-03-31T08:31:10;33.05;;;8.02;;
31978;SDS011;18502;43.574;1.276;2023-03-31T08:33:36;36.20;;;7.32;;
31978;SDS011;18502;43.574;1.276;2023-03-31T08:36:04;44.00;;;8.00;;
31978;SDS011;18502;43.574;1.276;2023-03-31T08:38:33;44.95;;;8.27;;
31978;SDS011;18502;43.574;1.276;2023-03-31T08:41:01;38.65;;;7.82;;
31978;SDS011;18502;43.574;1.276;2023-03-31T08:43:32;44.15;;;8.07;;
31978;SDS011;18502;43.574;1.276;2023-03-31T08:46:03;39.97;;;8.35;;
31978;SDS011;18502;43.574;1.276;2023-03-31T08:48:29;44.47;;;8.15;;
31978;SDS011;18502;43.574;1.276;2023-03-31T08:51:11;32.00;;;7.18;;
31978;SDS011;18502;43.574;1.276;2023-03-31T08:54:05;33.75;;;6.90;;
31978;SDS011;18502;43.574;1.276;2023-03-31T08:56:41;46.83;;;9.40;;
31978;SDS011;18502;43.574;1.276;2023-03-31T09:07:51;43.25;;;7.88;;
31978;SDS011;18502;43.574;1.276;2023-03-31T09:10:47;43.85;;;8.10;;
31978;SDS011;18502;43.574;1.276;2023-03-31T09:16:20;39.63;;;8.30;;
31978;SDS011;18502;43.574;1.276;2023-03-31T09:18:52;48.53;;;9.20;;
31978;SDS011;18502;43.574;1.276;2023-03-31T09:21:31;42.67;;;8.48;;
31978;SDS011;18502;43.574;1.276;2023-03-31T09:26:50;49.05;;;9.52;;
31978;SDS011;18502;43.574;1.276;2023-03-31T09:32:13;36.90;;;8.20;;
31978;SDS011;18502;43.574;1.276;2023-03-31T09:34:38;39.63;;;7.85;;
31978;SDS011;18502;43.574;1.276;2023-03-31T09:37:05;42.60;;;8.95;;
31978;SDS011;18502;43.574;1.276;2023-03-31T09:39:30;34.30;;;8.38;;
31978;SDS011;18502;43.574;1.276;2023-03-31T09:41:56;41.75;;;9.38;;
31978;SDS011;18502;43.574;1.276;2023-03-31T09:46:52;46.70;;;8.80;;
31978;SDS011;18502;43.574;1.276;2023-03-31T09:49:20;53.60;;;10.30;;
31978;SDS011;18502;43.574;1.276;2023-03-31T09:51:50;44.88;;;8.13;;
31978;SDS011;18502;43.574;1.276;2023-03-31T09:54:34;31.48;;;6.88;;
31978;SDS011;18502;43.574;1.276;2023-03-31T09:57:04;29.42;;;6.57;;
31978;SDS011;18502;43.574;1.276;2023-03-31T10:00:13;33.15;;;6.55;;
31978;SDS011;18502;43.574;1.276;2023-03-31T10:02:47;30.15;;;6.15;;
31978;SDS011;18502;43.574;1.276;2023-03-31T10:05:18;35.22;;;8.32;;
31978;SDS011;18502;43.574;1.276;2023-03-31T10:07:45;41.08;;;7.85;;
31978;SDS011;18502;43.574;1.276;2023-03-31T10:10:17;45.08;;;8.73;;
31978;SDS011;18502;43.574;1.276;2023-03-31T10:12:55;37.63;;;7.43;;
31978;SDS011;18502;43.574;1.276;2023-03-31T10:15:27;36.60;;;6.40;;
31978;SDS011;18502;43.574;1.276;2023-03-31T10:17:52;32.30;;;5.82;;
31978;SDS011;18502;43.574;1.276;2023-03-31T10:20:43;32.50;;;7.63;;
31978;SDS011;18502;43.574;1.276;2023-03-31T10:23:16;32.30;;;7.78;;
31978;SDS011;18502;43.574;1.276;2023-03-31T10:25:53;31.27;;;6.22;;
31978;SDS011;18502;43.574;1.276;2023-03-31T10:28:20;37.83;;;8.20;;
31978;SDS011;18502;43.574;1.276;2023-03-31T10:30:56;44.47;;;7.72;;
31978;SDS011;18502;43.574;1.276;2023-03-31T10:33:28;33.58;;;6.60;;
31978;SDS011;18502;43.574;1.276;2023-03-31T10:35:59;33.17;;;6.55;;
31978;SDS011;18502;43.574;1.276;2023-03-31T10:38:28;29.70;;;7.35;;
31978;SDS011;18502;43.574;1.276;2023-03-31T10:40:58;30.98;;;8.25;;
31978;SDS011;18502;43.574;1.276;2023-03-31T10:43:26;37.28;;;6.75;;
31978;SDS011;18502;43.574;1.276;2023-03-31T10:45:55;26.83;;;6.40;;
31978;SDS011;18502;43.574;1.276;2023-03-31T10:48:29;30.60;;;6.28;;
31978;SDS011;18502;43.574;1.276;2023-03-31T10:50:58;40.45;;;7.70;;
31978;SDS011;18502;43.574;1.276;2023-03-31T10:53:25;31.70;;;7.50;;
31978;SDS011;18502;43.574;1.276;2023-03-31T11:09:30;32.90;;;9.43;;
31978;SDS011;18502;43.574;1.276;2023-03-31T11:23:25;36.83;;;9.80;;
31978;SDS011;18502;43.574;1.276;2023-03-31T11:45:03;37.22;;;10.55;;
31978;SDS011;18502;43.574;1.276;2023-03-31T11:47:39;33.92;;;11.10;;
31978;SDS011;18502;43.574;1.276;2023-03-31T11:50:09;35.15;;;8.95;;
31978;SDS011;18502;43.574;1.276;2023-03-31T11:52:42;23.80;;;7.55;;
31978;SDS011;18502;43.574;1.276;2023-03-31T11:55:29;31.45;;;8.18;;
31978;SDS011;18502;43.574;1.276;2023-03-31T11:57:58;25.92;;;7.60;;
31978;SDS011;18502;43.574;1.276;2023-03-31T12:06:00;24.38;;;6.40;;
31978;SDS011;18502;43.574;1.276;2023-03-31T12:08:38;23.92;;;6.75;;
31978;SDS011;18502;43.574;1.276;2023-03-31T12:11:30;22.02;;;6.18;;
31978;SDS011;18502;43.574;1.276;2023-03-31T12:19:32;23.73;;;5.65;;
31978;SDS011;18502;43.574;1.276;2023-03-31T12:25:20;23.15;;;6.05;;
31978;SDS011;18502;43.574;1.276;2023-03-31T12:27:52;19.98;;;5.63;;
31978;SDS011;18502;43.574;1.276;2023-03-31T12:30:36;18.48;;;5.38;;
31978;SDS011;18502;43.574;1.276;2023-03-31T12:44:04;23.40;;;6.60;;
31978;SDS011;18502;43.574;1.276;2023-03-31T12:57:11;25.85;;;6.57;;
31978;SDS011;18502;43.574;1.276;2023-03-31T12:59:44;22.65;;;6.38;;
31978;SDS011;18502;43.574;1.276;2023-03-31T13:04:39;28.40;;;5.85;;
31978;SDS011;18502;43.574;1.276;2023-03-31T13:07:13;23.83;;;5.32;;
31978;SDS011;18502;43.574;1.276;2023-03-31T13:15:50;23.60;;;6.25;;
31978;SDS011;18502;43.574;1.276;2023-03-31T13:18:19;24.75;;;5.55;;
31978;SDS011;18502;43.574;1.276;2023-03-31T13:20:56;20.52;;;5.90;;
31978;SDS011;18502;43.574;1.276;2023-03-31T13:23:35;24.60;;;6.22;;
31978;SDS011;18502;43.574;1.276;2023-03-31T13:26:18;21.77;;;5.55;;
31978;SDS011;18502;43.574;1.276;2023-03-31T13:29:09;27.30;;;6.47;;
31978;SDS011;18502;43.574;1.276;2023-03-31T13:34:42;17.77;;;4.28;;
31978;SDS011;18502;43.574;1.276;2023-03-31T13:40:26;24.25;;;4.40;;
31978;SDS011;18502;43.574;1.276;2023-03-31T13:48:43;20.85;;;4.68;;
31978;SDS011;18502;43.574;1.276;2023-03-31T14:00:00;27.25;;;4.72;;
31978;SDS011;18502;43.574;1.276;2023-03-31T14:05:31;24.17;;;5.63;;
31978;SDS011;18502;43.574;1.276;2023-03-31T14:16:27;12.68;;;4.07;;
31978;SDS011;18502;43.574;1.276;2023-03-31T14:27:04;22.38;;;3.63;;
31978;SDS011;18502;43.574;1.276;2023-03-31T14:35:30;14.63;;;4.20;;
31978;SDS011;18502;43.574;1.276;2023-03-31T14:37:57;11.75;;;3.08;;
31978;SDS011;18502;43.574;1.276;2023-03-31T14:40:26;18.58;;;3.97;;
31978;SDS011;18502;43.574;1.276;2023-03-31T14:42:52;13.23;;;3.42;;
31978;SDS011;18502;43.574;1.276;2023-03-31T14:45:21;17.88;;;4.85;;
31978;SDS011;18502;43.574;1.276;2023-03-31T14:47:53;13.45;;;3.50;;
31978;SDS011;18502;43.574;1.276;2023-03-31T14:50:27;19.17;;;4.60;;
31978;SDS011;18502;43.574;1.276;2023-03-31T14:52:55;14.02;;;3.10;;
31978;SDS011;18502;43.574;1.276;2023-03-31T14:55:22;14.45;;;3.78;;
31978;SDS011;18502;43.574;1.276;2023-03-31T14:57:52;14.80;;;3.60;;
31978;SDS011;18502;43.574;1.276;2023-03-31T15:00:26;13.73;;;3.45;;
31978;SDS011;18502;43.574;1.276;2023-03-31T15:02:55;17.05;;;3.25;;
31978;SDS011;18502;43.574;1.276;2023-03-31T15:05:30;15.27;;;3.15;;
31978;SDS011;18502;43.574;1.276;2023-03-31T15:07:58;19.38;;;3.75;;
31978;SDS011;18502;43.574;1.276;2023-03-31T15:10:37;11.00;;;3.15;;
31978;SDS011;18502;43.574;1.276;2023-03-31T15:13:16;14.07;;;3.22;;
31978;SDS011;18502;43.574;1.276;2023-03-31T15:15:44;11.32;;;4.28;;
31978;SDS011;18502;43.574;1.276;2023-03-31T15:18:14;8.80;;;2.83;;
31978;SDS011;18502;43.574;1.276;2023-03-31T15:20:41;16.08;;;3.50;;
31978;SDS011;18502;43.574;1.276;2023-03-31T15:23:24;15.93;;;3.75;;
31978;SDS011;18502;43.574;1.276;2023-03-31T15:26:13;14.38;;;3.30;;
31978;SDS011;18502;43.574;1.276;2023-03-31T15:28:50;13.00;;;3.08;;
31978;SDS011;18502;43.574;1.276;2023-03-31T15:31:19;16.38;;;3.78;;
31978;SDS011;18502;43.574;1.276;2023-03-31T15:33:46;16.02;;;4.47;;
31978;SDS011;18502;43.574;1.276;2023-03-31T15:36:12;13.93;;;2.97;;
31978;SDS011;18502;43.574;1.276;2023-03-31T15:38:38;14.13;;;3.40;;
31978;SDS011;18502;43.574;1.276;2023-03-31T15:41:10;17.75;;;3.35;;
31978;SDS011;18502;43.574;1.276;2023-03-31T15:46:08;14.45;;;4.20;;
31978;SDS011;18502;43.574;1.276;2023-03-31T15:48:52;22.05;;;3.42;;
31978;SDS011;18502;43.574;1.276;2023-03-31T15:51:23;18.20;;;4.13;;
31978;SDS011;18502;43.574;1.276;2023-03-31T15:53:52;17.80;;;4.28;;
31978;SDS011;18502;43.574;1.276;2023-03-31T16:02:10;16.65;;;4.75;;
31978;SDS011;18502;43.574;1.276;2023-03-31T16:04:38;16.55;;;4.43;;
31978;SDS011;18502;43.574;1.276;2023-03-31T16:07:05;19.58;;;4.43;;
31978;SDS011;18502;43.574;1.276;2023-03-31T16:14:52;16.58;;;4.47;;
31978;SDS011;18502;43.574;1.276;2023-03-31T16:17:31;12.50;;;3.50;;
31978;SDS011;18502;43.574;1.276;2023-03-31T16:20:08;18.40;;;4.13;;
31978;SDS011;18502;43.574;1.276;2023-03-31T16:22:42;22.42;;;3.70;;
31978;SDS011;18502;43.574;1.276;2023-03-31T16:25:13;20.90;;;4.45;;
31978;SDS011;18502;43.574;1.276;2023-03-31T16:27:42;22.43;;;4.77;;
31978;SDS011;18502;43.574;1.276;2023-03-31T16:30:12;25.67;;;5.03;;
31978;SDS011;18502;43.574;1.276;2023-03-31T16:35:29;19.45;;;3.88;;
31978;SDS011;18502;43.574;1.276;2023-03-31T16:37:56;20.80;;;4.00;;
31978;SDS011;18502;43.574;1.276;2023-03-31T16:40:22;17.50;;;3.78;;
31978;SDS011;18502;43.574;1.276;2023-03-31T16:43:04;10.80;;;2.88;;
31978;SDS011;18502;43.574;1.276;2023-03-31T16:45:44;17.67;;;4.38;;
31978;SDS011;18502;43.574;1.276;2023-03-31T16:48:11;18.08;;;3.95;;
31978;SDS011;18502;43.574;1.276;2023-03-31T16:50:38;21.77;;;4.60;;
31978;SDS011;18502;43.574;1.276;2023-03-31T16:53:05;18.25;;;4.97;;
31978;SDS011;18502;43.574;1.276;2023-03-31T16:55:31;31.17;;;6.25;;
31978;SDS011;18502;43.574;1.276;2023-03-31T16:57:57;19.00;;;4.50;;
31978;SDS011;18502;43.574;1.276;2023-03-31T17:00:30;25.15;;;5.63;;
31978;SDS011;18502;43.574;1.276;2023-03-31T17:02:59;25.20;;;4.45;;
31978;SDS011;18502;43.574;1.276;2023-03-31T17:05:25;22.90;;;4.60;;
31978;SDS011;18502;43.574;1.276;2023-03-31T17:07:52;25.80;;;5.20;;
31978;SDS011;18502;43.574;1.276;2023-03-31T17:10:18;21.27;;;4.85;;
31978;SDS011;18502;43.574;1.276;2023-03-31T17:12:45;18.73;;;4.32;;
31978;SDS011;18502;43.574;1.276;2023-03-31T17:15:11;20.98;;;4.22;;
31978;SDS011;18502;43.574;1.276;2023-03-31T17:17:37;17.20;;;4.32;;
31978;SDS011;18502;43.574;1.276;2023-03-31T17:20:05;28.83;;;4.88;;
31978;SDS011;18502;43.574;1.276;2023-03-31T17:22:32;22.77;;;5.30;;
31978;SDS011;18502;43.574;1.276;2023-03-31T17:24:59;23.35;;;5.25;;
31978;SDS011;18502;43.574;1.276;2023-03-31T17:27:25;26.45;;;5.47;;
31978;SDS011;18502;43.574;1.276;2023-03-31T17:29:52;16.17;;;4.32;;
31978;SDS011;18502;43.574;1.276;2023-03-31T17:32:19;22.30;;;4.57;;
31978;SDS011;18502;43.574;1.276;2023-03-31T17:34:45;26.73;;;4.68;;
31978;SDS011;18502;43.574;1.276;2023-03-31T17:37:13;23.42;;;4.13;;
31978;SDS011;18502;43.574;1.276;2023-03-31T17:39:40;20.98;;;3.83;;
31978;SDS011;18502;43.574;1.276;2023-03-31T17:42:07;18.40;;;4.00;;
31978;SDS011;18502;43.574;1.276;2023-03-31T17:44:33;22.23;;;3.92;;
31978;SDS011;18502;43.574;1.276;2023-03-31T17:46:58;23.90;;;4.00;;
31978;SDS011;18502;43.574;1.276;2023-03-31T17:49:24;19.60;;;2.90;;
31978;SDS011;18502;43.574;1.276;2023-03-31T17:51:50;20.48;;;3.53;;
31978;SDS011;18502;43.574;1.276;2023-03-31T17:54:17;14.00;;;3.40;;
31978;SDS011;18502;43.574;1.276;2023-03-31T17:56:43;20.73;;;4.20;;
31978;SDS011;18502;43.574;1.276;2023-03-31T17:59:09;23.67;;;4.55;;
31978;SDS011;18502;43.574;1.276;2023-03-31T18:01:36;21.52;;;4.45;;
31978;SDS011;18502;43.574;1.276;2023-03-31T18:04:02;17.60;;;4.45;;
31978;SDS011;18502;43.574;1.276;2023-03-31T18:06:27;22.90;;;4.35;;
31978;SDS011;18502;43.574;1.276;2023-03-31T18:08:54;27.27;;;6.25;;
31978;SDS011;18502;43.574;1.276;2023-03-31T18:11:20;29.17;;;5.03;;
31978;SDS011;18502;43.574;1.276;2023-03-31T18:13:47;26.40;;;5.40;;
31978;SDS011;18502;43.574;1.276;2023-03-31T18:16:13;22.88;;;5.22;;
31978;SDS011;18502;43.574;1.276;2023-03-31T18:18:39;29.33;;;4.35;;
31978;SDS011;18502;43.574;1.276;2023-03-31T18:21:06;26.00;;;4.95;;
31978;SDS011;18502;43.574;1.276;2023-03-31T18:23:37;25.77;;;4.05;;
31978;SDS011;18502;43.574;1.276;2023-03-31T18:26:06;26.67;;;5.60;;
31978;SDS011;18502;43.574;1.276;2023-03-31T18:31:02;23.48;;;4.75;;
31978;SDS011;18502;43.574;1.276;2023-03-31T18:33:29;32.00;;;6.72;;
31978;SDS011;18502;43.574;1.276;2023-03-31T18:35:55;16.45;;;3.22;;